createdAt,value
2022-12-06T00:03:41.610Z,13.85
2022-12-06T00:08:43.912Z,11.07
2022-12-06T00:13:45.584Z,11.20
2022-12-06T00:18:47.062Z,8.07
2022-12-06T00:23:50.070Z,8.52
2022-12-06T00:28:57.826Z,7.60
2022-12-06T00:33:59.350Z,9.52
2022-12-06T00:39:02.621Z,7.47
2022-12-06T00:44:04.179Z,6.43
2022-12-06T00:49:06.502Z,7.10
2022-12-06T00:54:08.435Z,10.25
2022-12-06T00:59:10.074Z,9.40
2022-12-06T01:04:11.622Z,8.52
2022-12-06T01:09:13.107Z,7.45
2022-12-06T01:14:14.531Z,8.82
2022-12-06T01:19:15.973Z,7.65
2022-12-06T01:24:17.342Z,9.23
2022-12-06T01:29:19.143Z,7.90
2022-12-06T01:34:20.622Z,7.40
2022-12-06T01:39:22.029Z,5.97
2022-12-06T01:44:55.631Z,8.63
2022-12-06T01:50:02.877Z,8.52
2022-12-06T01:55:06.965Z,9.65
2022-12-06T02:00:09.056Z,7.47
2022-12-06T02:05:11.518Z,8.65
2022-12-06T02:10:13.191Z,7.53
2022-12-06T02:15:14.669Z,8.27
2022-12-06T02:20:19.189Z,7.47
2022-12-06T02:25:23.297Z,6.65
2022-12-06T02:30:43.775Z,8.05
2022-12-06T02:35:55.587Z,7.80
2022-12-06T02:41:02.373Z,10.13
2022-12-06T02:46:04.475Z,7.57
2022-12-06T02:51:08.166Z,9.02
2022-12-06T02:56:09.678Z,7.57
2022-12-06T03:01:23.366Z,7.40
2022-12-06T03:06:50.923Z,5.95
2022-12-06T03:11:55.178Z,6.50
2022-12-06T03:17:05.966Z,6.40
2022-12-06T03:22:09.137Z,8.20
2022-12-06T03:27:13.077Z,10.10
2022-12-06T03:32:15.775Z,5.57
2022-12-06T03:37:21.529Z,9.02
2022-12-06T03:42:23.141Z,7.65
2022-12-06T03:52:44.603Z,11.30
2022-12-06T03:57:46.048Z,10.23
2022-12-06T04:02:47.477Z,6.13
2022-12-06T04:07:49.029Z,7.57
2022-12-06T04:13:02.452Z,6.05
2022-12-06T04:18:11.298Z,7.45
2022-12-06T04:23:12.755Z,5.47
2022-12-06T04:28:32.730Z,8.70
2022-12-06T04:33:52.945Z,6.07
2022-12-06T04:43:55.628Z,5.75
2022-12-06T04:48:57.460Z,4.05
2022-12-06T04:53:58.987Z,6.80
2022-12-06T04:59:00.397Z,6.82
2022-12-06T05:04:01.925Z,4.13
2022-12-06T05:09:03.862Z,6.38
2022-12-06T05:14:05.364Z,5.82
2022-12-06T05:19:06.831Z,7.07
2022-12-06T05:24:08.386Z,6.97
2022-12-06T05:29:09.888Z,6.82
2022-12-06T05:34:11.427Z,8.38
2022-12-06T05:39:12.806Z,8.02
2022-12-06T05:44:14.254Z,6.15
2022-12-06T05:49:15.686Z,8.57
2022-12-06T05:54:17.174Z,7.00
2022-12-06T05:59:18.587Z,8.65
2022-12-06T06:04:20.069Z,6.63
2022-12-06T06:09:21.446Z,9.45
2022-12-06T06:14:22.963Z,7.57
2022-12-06T06:19:24.617Z,7.57
2022-12-06T06:24:26.048Z,12.38
2022-12-06T06:29:27.483Z,13.52
2022-12-06T06:34:28.911Z,13.48
2022-12-06T06:39:30.309Z,8.77
2022-12-06T06:44:32.876Z,8.43
2022-12-06T06:49:34.262Z,9.85
2022-12-06T06:54:35.632Z,10.80
2022-12-06T06:59:37.040Z,9.18
2022-12-06T07:04:38.449Z,11.00
2022-12-06T07:09:40.767Z,10.02
2022-12-06T07:14:42.246Z,14.05
2022-12-06T07:19:43.677Z,11.13
2022-12-06T07:24:50.786Z,12.50
2022-12-06T07:29:53.750Z,17.77
2022-12-06T07:34:55.112Z,31.48
2022-12-06T07:39:56.537Z,27.58
2022-12-06T07:45:07.186Z,23.23
2022-12-06T07:50:15.964Z,17.83
2022-12-06T07:55:19.328Z,13.60
2022-12-06T08:00:21.014Z,13.98
2022-12-06T08:05:22.393Z,13.07
2022-12-06T08:10:23.774Z,11.50
2022-12-06T08:15:25.165Z,13.80
2022-12-06T08:20:26.625Z,11.75
2022-12-06T08:25:28.049Z,13.43
2022-12-06T08:30:29.711Z,10.10
2022-12-06T08:35:31.209Z,11.75
2022-12-06T08:40:51.243Z,11.20
2022-12-06T08:45:52.944Z,12.85
2022-12-06T08:50:54.375Z,15.43
2022-12-06T08:56:01.939Z,9.45
2022-12-06T09:01:35.719Z,14.02
2022-12-06T09:06:40.265Z,10.52
2022-12-06T09:11:41.811Z,10.20
2022-12-06T09:16:44.088Z,9.63
2022-12-06T09:21:46.531Z,10.07
2022-12-06T09:26:48.358Z,11.07
2022-12-06T09:31:49.801Z,10.50
2022-12-06T09:36:54.036Z,8.85
2022-12-06T09:42:10.587Z,10.23
2022-12-06T09:47:20.784Z,11.88
2022-12-06T09:52:22.481Z,7.15
2022-12-06T09:57:26.893Z,12.70
2022-12-06T10:02:34.255Z,10.52
2022-12-06T10:07:54.523Z,8.20
2022-12-06T10:18:10.508Z,7.70
2022-12-06T10:23:23.302Z,8.30
2022-12-06T10:28:25.260Z,9.05
2022-12-06T10:33:32.845Z,7.68
2022-12-06T10:38:34.214Z,8.60
2022-12-06T10:43:35.594Z,8.55
2022-12-06T10:48:40.996Z,7.13
2022-12-06T10:53:49.049Z,8.40
2022-12-06T10:58:54.151Z,8.35
2022-12-06T11:03:58.692Z,7.10
2022-12-06T11:09:20.531Z,8.90
2022-12-06T11:14:28.336Z,7.60
2022-12-06T11:19:29.711Z,10.10
2022-12-06T11:24:33.405Z,7.93
2022-12-06T11:29:34.823Z,9.68
2022-12-06T11:34:53.590Z,8.38
2022-12-06T11:39:59.507Z,7.45
2022-12-06T11:45:05.013Z,8.43
2022-12-06T11:50:16.927Z,6.60
2022-12-06T11:55:20.125Z,9.45
2022-12-06T12:00:25.110Z,8.00
2022-12-06T12:05:38.867Z,7.93
2022-12-06T12:10:42.661Z,5.43
2022-12-06T12:15:51.205Z,8.27
2022-12-06T12:20:53.331Z,7.07
2022-12-06T12:26:02.420Z,6.65
2022-12-06T12:31:09.764Z,8.97
2022-12-06T12:36:22.134Z,6.15
2022-12-06T12:41:29.373Z,7.40
2022-12-06T12:46:34.706Z,8.10
2022-12-06T12:51:41.430Z,7.57
2022-12-06T12:56:48.439Z,7.80
2022-12-06T13:01:49.921Z,8.43
2022-12-06T13:06:54.345Z,10.18
2022-12-06T13:12:18.771Z,8.73
2022-12-06T13:17:22.778Z,6.43
2022-12-06T13:22:26.250Z,6.07
2022-12-06T13:27:29.486Z,6.43
2022-12-06T13:32:33.590Z,6.35
2022-12-06T13:37:34.950Z,6.90
2022-12-06T13:42:36.322Z,5.80
2022-12-06T13:47:38.889Z,3.20
2022-12-06T13:52:43.154Z,2.55
2022-12-06T13:57:44.609Z,5.95
2022-12-06T14:02:46.517Z,3.92
2022-12-06T14:07:48.097Z,2.80
2022-12-06T14:12:58.677Z,3.65
2022-12-06T14:18:04.539Z,4.43
2022-12-06T14:23:26.627Z,3.83
2022-12-06T14:28:34.799Z,4.40
2022-12-06T14:33:38.932Z,4.63
2022-12-06T14:38:40.795Z,5.82
2022-12-06T14:43:46.021Z,4.07
2022-12-06T14:49:10.321Z,5.32
2022-12-06T14:54:18.722Z,6.10
2022-12-06T14:59:47.366Z,4.22
2022-12-06T15:04:42.835Z,5.97
2022-12-06T15:09:46.081Z,3.38
2022-12-06T15:14:48.818Z,3.80
2022-12-06T15:19:51.382Z,5.20
2022-12-06T15:24:55.367Z,5.00
2022-12-06T15:29:56.865Z,5.90
2022-12-06T15:34:58.228Z,4.85
2022-12-06T15:40:00.118Z,5.05
2022-12-06T15:45:01.942Z,6.88
2022-12-06T15:50:04.409Z,7.20
2022-12-06T15:55:06.141Z,8.68
2022-12-06T16:00:07.973Z,6.82
2022-12-06T16:05:14.012Z,9.63
2022-12-06T16:10:20.749Z,12.63
2022-12-06T16:15:23.655Z,10.38
2022-12-06T16:20:30.784Z,11.27
2022-12-06T16:25:32.906Z,9.23
2022-12-06T16:30:35.382Z,6.85
2022-12-06T16:35:36.692Z,11.98
2022-12-06T16:40:38.188Z,11.48
2022-12-06T16:45:40.974Z,8.52
2022-12-06T16:50:42.681Z,10.48
2022-12-06T16:55:44.548Z,13.27
2022-12-06T17:00:47.749Z,10.48
2022-12-06T17:05:49.310Z,12.23
2022-12-06T17:11:10.702Z,10.02
2022-12-06T17:16:12.141Z,9.57
2022-12-06T17:21:17.091Z,10.93
2022-12-06T17:26:19.115Z,10.60
2022-12-06T17:31:20.739Z,11.82
2022-12-06T17:36:25.193Z,14.43
2022-12-06T17:41:51.544Z,11.73
2022-12-06T17:47:56.726Z,10.95
2022-12-06T17:52:16.689Z,10.30
2022-12-06T17:57:18.562Z,12.35
2022-12-06T18:02:23.897Z,13.00
2022-12-06T18:07:25.528Z,16.17
2022-12-06T18:12:31.775Z,6.97
2022-12-06T18:17:35.007Z,8.98
2022-12-06T18:22:36.518Z,9.18
2022-12-06T18:27:37.916Z,9.35
2022-12-06T18:32:39.403Z,8.18
2022-12-06T18:37:41.058Z,7.85
2022-12-06T18:42:42.481Z,8.02
2022-12-06T18:47:43.892Z,6.25
2022-12-06T18:52:45.303Z,8.73
2022-12-06T18:57:46.673Z,10.18
2022-12-06T19:02:49.349Z,8.15
2022-12-06T19:07:50.950Z,8.05
2022-12-06T19:12:52.738Z,8.77
2022-12-06T19:17:54.328Z,13.25
2022-12-06T19:22:55.717Z,9.60
2022-12-06T19:27:57.104Z,12.15
2022-12-06T19:32:58.527Z,9.48
2022-12-06T19:37:59.942Z,13.40
2022-12-06T19:43:19.854Z,10.68
2022-12-06T19:48:21.390Z,7.43
2022-12-06T19:53:23.111Z,8.27
2022-12-06T19:58:24.538Z,9.75
2022-12-06T20:08:41.690Z,8.98
2022-12-06T20:13:43.142Z,7.18
2022-12-06T20:18:44.551Z,10.27
2022-12-06T20:23:45.929Z,6.22
2022-12-06T20:28:47.978Z,6.22
2022-12-06T20:33:49.759Z,10.85
2022-12-06T20:44:08.708Z,11.02
2022-12-06T20:49:10.148Z,8.88
2022-12-06T20:54:11.978Z,8.23
2022-12-06T20:59:13.417Z,10.38
2022-12-06T21:04:14.964Z,10.07
2022-12-06T21:09:16.323Z,9.85
2022-12-06T21:14:18.056Z,12.85
2022-12-06T21:19:19.834Z,16.00
2022-12-06T21:24:21.859Z,20.70
2022-12-06T21:29:30.356Z,23.23
2022-12-06T21:34:32.566Z,17.83
2022-12-06T21:39:33.980Z,15.73
2022-12-06T21:44:35.385Z,9.23
2022-12-06T21:49:36.789Z,12.80
2022-12-06T21:54:38.191Z,12.27
2022-12-06T21:59:39.789Z,10.18
2022-12-06T22:04:41.402Z,16.45
2022-12-06T22:09:42.872Z,9.70
2022-12-06T22:14:44.663Z,12.65
2022-12-06T22:19:58.386Z,16.10
2022-12-06T22:25:00.431Z,13.10
2022-12-06T22:30:03.261Z,14.30
2022-12-06T22:35:05.132Z,12.18
2022-12-06T22:40:06.988Z,18.67
2022-12-06T22:45:08.948Z,18.02
2022-12-06T22:50:10.419Z,15.43
2022-12-06T22:55:11.790Z,12.85
2022-12-06T23:00:13.395Z,9.68
2022-12-06T23:05:14.851Z,9.98
2022-12-06T23:10:16.243Z,15.65
2022-12-06T23:15:17.792Z,13.50
2022-12-06T23:20:19.190Z,7.30
2022-12-06T23:25:20.545Z,8.10
2022-12-06T23:30:21.940Z,14.27
2022-12-06T23:35:23.331Z,14.38
2022-12-06T23:40:25.066Z,9.35
2022-12-06T23:45:26.545Z,11.38
2022-12-06T23:50:27.949Z,11.88
2022-12-06T23:55:29.320Z,12.07
